Time;durP1;ratioP1;P1;durP2;ratioP2;P2;SDS_P1;SDS_P2;PMS_P1;PMS_P2;Temp;Humidity;BMP_temperature;BMP_pressure;BME280_temperature;BME280_humidity;BME280_pressure;Samples;Min_cycle;Max_cycle;Signal;HPM_P1;HPM_P2
2022/05/06 00:02:08;;;;;;;;;19.50;16.25;;;;;14.78;51.31;101921.69;5037293;28;47900;-52
2022/05/06 00:04:34;;;;;;;;;21.50;19.50;;;;;14.74;51.89;101920.91;5038598;28;65643;-55
2022/05/06 00:06:59;;;;;;;;;22.50;18.25;;;;;14.72;52.17;101927.97;5038714;28;45410;-54
2022/05/06 00:09:25;;;;;;;;;24.75;19.75;;;;;14.71;52.36;101934.13;5039633;28;55963;-54
2022/05/06 00:11:51;;;;;;;;;22.25;19.25;;;;;14.72;52.27;101920.06;5035925;28;67776;-54
2022/05/06 00:14:17;;;;;;;;;17.75;16.00;;;;;14.72;52.54;101930.63;5034641;28;45872;-54
2022/05/06 00:16:42;;;;;;;;;25.50;18.75;;;;;14.74;52.54;101922.69;5037911;28;45493;-52
2022/05/06 00:19:08;;;;;;;;;22.75;18.00;;;;;14.74;52.71;101927.94;5034048;28;51395;-54
2022/05/06 00:21:33;;;;;;;;;23.50;19.50;;;;;14.73;52.27;101918.28;5046072;28;47969;-53
2022/05/06 00:23:59;;;;;;;;;25.25;21.25;;;;;14.71;52.62;101917.47;5040286;28;45311;-53
2022/05/06 00:26:24;;;;;;;;;22.25;19.00;;;;;14.71;52.57;101918.34;5036977;28;59183;-53
2022/05/06 00:28:49;;;;;;;;;27.25;24.25;;;;;14.72;52.19;101929.75;5034624;28;66244;-53
2022/05/06 00:31:15;;;;;;;;;26.00;19.50;;;;;14.66;52.12;101916.72;5037051;28;46254;-53
2022/05/06 00:33:40;;;;;;;;;23.25;20.25;;;;;14.67;52.65;101927.22;5038729;28;65430;-52
2022/05/06 00:36:06;;;;;;;;;23.00;18.00;;;;;14.63;53.02;101920.31;5038409;28;45257;-54
2022/05/06 00:38:31;;;;;;;;;27.00;19.25;;;;;14.65;53.29;101930.81;5036399;28;45299;-54
2022/05/06 00:40:57;;;;;;;;;22.00;17.50;;;;;14.65;52.74;101930.81;5038356;28;45463;-53
2022/05/06 00:43:26;;;;;;;;;24.00;20.50;;;;;14.63;53.47;101925.59;5035957;28;45356;-52
2022/05/06 00:45:52;;;;;;;;;22.00;19.00;;;;;14.61;52.85;101930.88;5025676;28;45569;-53
2022/05/06 00:48:19;;;;;;;;;26.75;21.50;;;;;14.61;53.00;101930.88;5035786;28;45383;-52
2022/05/06 00:50:45;;;;;;;;;24.25;21.50;;;;;14.63;52.68;101930.00;5038776;28;46340;-53
2022/05/06 00:53:11;;;;;;;;;28.25;20.25;;;;;14.61;53.17;101930.03;5031631;28;45400;-53
2022/05/06 00:55:37;;;;;;;;;25.00;17.00;;;;;14.59;52.83;101927.44;5039688;28;45460;-53
2022/05/06 00:58:05;;;;;;;;;24.25;23.00;;;;;14.57;52.94;101926.56;5032963;28;45322;-54
2022/05/06 01:00:30;;;;;;;;;26.50;19.50;;;;;14.55;53.39;101927.50;5039684;28;45317;-53
2022/05/06 01:02:56;;;;;;;;;28.50;23.75;;;;;14.56;53.29;101923.97;5034036;28;65097;-53
2022/05/06 01:05:22;;;;;;;;;27.50;21.00;;;;;14.56;53.49;101921.34;5039612;28;64442;-53
2022/05/06 01:07:49;;;;;;;;;22.50;18.75;;;;;14.56;53.79;101916.94;5036911;28;45312;-53
2022/05/06 01:10:15;;;;;;;;;24.25;23.50;;;;;14.56;53.22;101914.28;5039867;28;45230;-53
2022/05/06 01:12:40;;;;;;;;;28.75;23.25;;;;;14.60;53.81;101915.09;5028263;28;45440;-53
2022/05/06 01:15:19;;;;;;;;;24.75;21.75;;;;;14.59;53.86;101914.25;5039456;28;61795;-51
2022/05/06 01:17:45;;;;;;;;;25.00;22.25;;;;;14.60;53.26;101920.38;5030378;28;45400;-53
2022/05/06 01:20:11;;;;;;;;;21.50;20.25;;;;;14.57;53.00;101915.16;5039935;28;47076;-53
2022/05/06 01:22:38;;;;;;;;;23.00;22.50;;;;;14.55;53.73;101912.53;5033865;28;45924;-52
2022/05/06 01:25:03;;;;;;;;;27.00;21.75;;;;;14.52;53.58;101915.28;5038625;28;45496;-53
2022/05/06 01:27:29;;;;;;;;;29.75;21.00;;;;;14.50;53.74;101917.09;5031184;28;45443;-53
2022/05/06 01:29:54;;;;;;;;;26.25;21.50;;;;;14.49;53.29;101917.13;5021994;28;45975;-52
2022/05/06 01:32:20;;;;;;;;;28.75;25.25;;;;;14.41;53.80;101912.03;5033216;28;45531;-53
2022/05/06 01:34:45;;;;;;;;;32.25;25.00;;;;;14.42;54.00;101919.88;5021187;28;64740;-53
2022/05/06 01:37:10;;;;;;;;;27.50;23.00;;;;;14.36;53.80;101913.91;5012860;28;63577;-52
2022/05/06 01:39:36;;;;;;;;;27.50;22.00;;;;;14.36;53.37;101927.06;5020750;28;69347;-52
2022/05/06 01:42:06;;;;;;;;;27.00;22.00;;;;;14.31;53.79;101924.56;5033115;28;45253;-53
2022/05/06 01:44:35;;;;;;;;;29.25;25.75;;;;;14.27;53.94;101917.63;5039881;28;45257;-52
2022/05/06 01:47:00;;;;;;;;;30.25;21.00;;;;;14.21;53.96;101913.34;5033089;28;45423;-52
2022/05/06 01:49:26;;;;;;;;;29.00;23.00;;;;;14.17;53.97;101903.81;5038470;28;46010;-53
2022/05/06 01:51:53;;;;;;;;;27.50;23.75;;;;;14.19;54.37;101909.91;5030993;28;67375;-52
2022/05/06 01:54:18;;;;;;;;;28.00;22.50;;;;;14.16;54.83;101909.97;5021863;28;45492;-50
2022/05/06 01:56:45;;;;;;;;;25.25;22.50;;;;;14.18;54.41;101916.09;5032436;28;45424;-53
2022/05/06 01:59:12;;;;;;;;;31.50;29.00;;;;;14.18;54.62;101918.72;5036005;28;45416;-52
2022/05/06 02:01:37;;;;;;;;;29.50;24.50;;;;;14.18;54.70;101918.72;5034845;28;45277;-53
2022/05/06 02:06:47;;;;;;;;;38.50;25.00;;;;;14.18;54.43;101915.19;5036003;28;45381;-53
2022/05/06 02:09:12;;;;;;;;;29.75;24.25;;;;;14.17;54.62;101921.38;5037644;28;45273;-51
2022/05/06 02:11:37;;;;;;;;;30.00;21.00;;;;;14.14;54.68;101916.19;5038013;28;54450;-53
2022/05/06 02:14:03;;;;;;;;;26.50;22.00;;;;;14.13;54.44;101919.69;5042691;28;45273;-53
2022/05/06 02:16:29;;;;;;;;;24.25;22.00;;;;;14.10;54.57;101917.16;5040720;28;45347;-53
2022/05/06 02:18:54;;;;;;;;;28.75;23.50;;;;;14.05;54.19;101920.75;5034516;28;47009;-53
2022/05/06 02:21:20;;;;;;;;;30.75;27.50;;;;;14.01;55.22;101924.34;5040548;28;45655;-51
2022/05/06 02:23:45;;;;;;;;;26.50;22.75;;;;;13.99;55.34;101923.53;5035434;28;63362;-53
2022/05/06 02:26:10;;;;;;;;;24.75;22.00;;;;;13.99;55.42;101920.03;5038847;28;66113;-50
2022/05/06 02:28:36;;;;;;;;;27.75;23.00;;;;;13.98;54.96;101918.28;5038253;28;68021;-53
2022/05/06 02:33:45;;;;;;;;;27.50;22.50;;;;;13.95;55.63;101906.09;5039002;28;45379;-51
2022/05/06 02:36:11;;;;;;;;;26.00;24.00;;;;;13.96;55.96;101907.78;5039653;28;45166;-51
2022/05/06 02:38:36;;;;;;;;;33.25;23.75;;;;;13.96;55.55;101910.44;5038682;28;46209;-53
2022/05/06 02:41:02;;;;;;;;;27.25;19.75;;;;;13.97;55.70;101916.53;5040407;28;45406;-53
2022/05/06 02:43:27;;;;;;;;;25.50;22.00;;;;;13.98;55.42;101910.41;5053136;28;46759;-53
2022/05/06 02:45:52;;;;;;;;;30.25;23.25;;;;;13.97;55.60;101904.28;5040497;28;45553;-52
2022/05/06 02:48:19;;;;;;;;;27.25;21.25;;;;;13.99;55.63;101914.78;5037641;28;45461;-53
2022/05/06 02:50:44;;;;;;;;;24.75;21.75;;;;;13.98;55.24;101916.50;5040963;28;45397;-52
2022/05/06 02:53:09;;;;;;;;;28.25;23.75;;;;;13.97;56.08;101912.16;5034343;28;45309;-53
2022/05/06 02:55:35;;;;;;;;;27.50;22.50;;;;;13.97;55.69;101919.19;5041592;28;45310;-53
2022/05/06 02:58:00;;;;;;;;;30.50;23.00;;;;;13.97;55.73;101920.06;5034605;28;45971;-52
2022/05/06 03:00:27;;;;;;;;;29.00;26.00;;;;;13.97;56.16;101927.97;5041456;28;69317;-54
2022/05/06 03:02:52;;;;;;;;;27.75;25.25;;;;;13.96;55.27;101928.00;5037608;28;45431;-53
2022/05/06 03:05:18;;;;;;;;;24.25;19.50;;;;;13.92;56.13;101924.56;5041838;28;58228;-53
2022/05/06 03:07:43;;;;;;;;;31.00;26.00;;;;;13.91;55.79;101921.97;5038721;28;64354;-53
2022/05/06 03:10:09;;;;;;;;;27.25;23.50;;;;;13.90;55.60;101922.84;5041923;28;45451;-50
2022/05/06 03:12:35;;;;;;;;;29.25;22.25;;;;;13.88;55.78;101925.50;5032019;28;45459;-51
2022/05/06 03:15:03;;;;;;;;;32.00;22.75;;;;;13.88;55.96;101917.63;5041872;28;45252;-53
2022/05/06 03:17:29;;;;;;;;;29.25;24.00;;;;;13.86;55.84;101925.56;5035377;28;46172;-53
2022/05/06 03:19:55;;;;;;;;;28.50;26.50;;;;;13.83;55.80;101920.38;5041845;28;45463;-53
2022/05/06 03:22:20;;;;;;;;;25.25;22.00;;;;;13.80;55.90;101928.31;5032493;28;45650;-53
2022/05/06 03:24:45;;;;;;;;;27.00;24.75;;;;;13.79;55.82;101928.34;5041472;28;45333;-53
2022/05/06 03:29:55;;;;;;;;;33.75;24.50;;;;;13.74;56.25;101930.19;5040403;28;45379;-53
2022/05/06 03:32:21;;;;;;;;;24.00;22.75;;;;;13.73;56.18;101928.47;5035199;28;45761;-53
2022/05/06 03:34:48;;;;;;;;;27.75;25.00;;;;;13.71;55.93;101935.56;5041641;28;45469;-54
2022/05/06 03:37:13;;;;;;;;;28.25;23.75;;;;;13.66;56.30;101925.97;5034726;28;47811;-52
2022/05/06 03:39:39;;;;;;;;;35.50;27.25;;;;;13.67;56.47;101932.13;5041426;28;45408;-51
2022/05/06 03:42:04;;;;;;;;;29.50;21.50;;;;;13.62;56.04;101929.56;5034337;28;63864;-53
2022/05/06 03:44:29;;;;;;;;;24.00;20.75;;;;;13.58;56.08;101929.66;5041455;28;45399;-51
2022/05/06 03:46:55;;;;;;;;;30.00;24.00;;;;;13.56;56.03;101932.31;5034597;28;45375;-51
2022/05/06 03:49:20;;;;;;;;;26.00;23.50;;;;;13.54;56.77;101931.47;5040745;28;65981;-53
2022/05/06 03:51:46;;;;;;;;;27.25;21.50;;;;;13.45;56.81;101913.25;5034303;28;63257;-52
2022/05/06 03:54:12;;;;;;;;;24.25;21.75;;;;;13.55;56.38;101929.72;5036868;28;45213;-52
2022/05/06 03:56:37;;;;;;;;;34.50;24.75;;;;;13.54;56.07;101931.47;5034990;28;64331;-53
2022/05/06 03:59:02;;;;;;;;;30.00;24.00;;;;;13.54;56.54;101930.63;5037236;28;60305;-53
2022/05/06 04:01:28;;;;;;;;;29.50;24.25;;;;;13.52;56.54;101940.31;5036259;28;64093;-54
2022/05/06 04:03:54;;;;;;;;;23.00;22.25;;;;;13.47;56.86;101936.03;5038892;28;45306;-51
2022/05/06 04:06:20;;;;;;;;;24.75;22.50;;;;;13.42;56.49;101943.13;5037788;28;46146;-52
2022/05/06 04:08:45;;;;;;;;;32.00;25.00;;;;;13.41;56.65;101943.16;5039441;28;45395;-54
2022/05/06 04:11:11;;;;;;;;;33.25;24.25;;;;;13.39;56.45;101934.44;5038909;28;45313;-52
2022/05/06 04:13:36;;;;;;;;;31.50;25.75;;;;;13.35;56.43;101944.16;5040720;28;45617;-50
2022/05/06 04:16:02;;;;;;;;;27.25;25.25;;;;;13.33;56.60;101947.69;5038857;28;46185;-53
2022/05/06 04:18:27;;;;;;;;;28.00;25.25;;;;;13.29;57.10;101950.31;5033099;28;45453;-52
2022/05/06 04:23:38;;;;;;;;;32.00;24.25;;;;;13.27;57.08;101952.13;5037208;28;45425;-51
2022/05/06 04:26:07;;;;;;;;;29.50;24.50;;;;;13.27;56.98;101946.00;5037545;28;46432;-52
2022/05/06 04:28:33;;;;;;;;;27.25;23.50;;;;;13.29;57.14;101944.22;5036819;28;45764;-53
2022/05/06 04:30:58;;;;;;;;;31.25;25.25;;;;;13.29;57.18;101955.59;5038912;28;45221;-51
2022/05/06 04:33:26;;;;;;;;;29.50;24.25;;;;;13.27;57.27;101949.50;5038733;28;45249;-51
2022/05/06 04:35:53;;;;;;;;;33.75;30.00;;;;;13.24;56.99;101949.56;5038286;28;45732;-52
2022/05/06 04:38:18;;;;;;;;;29.25;23.75;;;;;13.24;56.77;101952.19;5035802;28;45873;-51
2022/05/06 04:40:44;;;;;;;;;35.00;25.50;;;;;13.23;57.20;101954.84;5039296;28;45661;-51
2022/05/06 04:43:09;;;;;;;;;30.50;25.25;;;;;13.20;57.53;101953.13;5035106;28;50017;-51
2022/05/06 04:45:38;;;;;;;;;26.25;22.00;;;;;13.20;57.37;101960.16;5039938;28;46033;-52
2022/05/06 04:48:05;;;;;;;;;35.50;24.25;;;;;13.20;57.11;101960.16;5037100;28;45809;-53
2022/05/06 04:50:34;;;;;;;;;34.75;27.00;;;;;13.20;57.35;101963.66;5035768;28;45485;-50
2022/05/06 04:53:00;;;;;;;;;34.75;26.75;;;;;13.18;57.27;101968.06;5031780;28;45486;-52
2022/05/06 04:55:25;;;;;;;;;35.75;29.50;;;;;13.19;57.53;101966.31;5035823;28;46126;-53
2022/05/06 04:57:50;;;;;;;;;32.75;23.75;;;;;13.19;57.28;101967.19;5036004;28;45377;-51
2022/05/06 05:00:16;;;;;;;;;36.00;26.00;;;;;13.19;57.24;101968.94;5036370;28;60995;-52
2022/05/06 05:02:42;;;;;;;;;31.50;26.75;;;;;13.19;57.26;101975.06;5035963;28;45412;-52
2022/05/06 05:05:08;;;;;;;;;32.75;24.00;;;;;13.20;57.65;101979.41;5036141;28;69337;-52
2022/05/06 05:07:33;;;;;;;;;23.25;20.25;;;;;13.20;57.39;101968.91;5037282;28;45264;-50
2022/05/06 05:09:58;;;;;;;;;46.00;29.00;;;;;13.20;57.69;101982.03;5038149;28;63012;-50
2022/05/06 05:12:24;;;;;;;;;34.75;26.25;;;;;13.21;57.56;101977.66;5030641;28;68006;-52
2022/05/06 05:14:51;;;;;;;;;35.50;23.25;;;;;13.25;57.44;101987.25;5037817;28;46104;-50
2022/05/06 05:17:16;;;;;;;;;28.25;24.25;;;;;13.27;57.54;101990.69;5032633;28;46070;-49
2022/05/06 05:19:42;;;;;;;;;32.75;26.00;;;;;13.29;57.26;101983.66;5037389;28;63581;-53
2022/05/06 05:22:07;;;;;;;;;32.75;26.00;;;;;13.30;57.25;101981.00;5034217;28;45433;-51
2022/05/06 05:24:33;;;;;;;;;29.25;24.50;;;;;13.33;57.26;101976.59;5039408;28;45783;-53
2022/05/06 05:26:58;;;;;;;;;30.00;22.00;;;;;13.36;57.28;101968.66;5033266;28;45360;-51
2022/05/06 05:29:23;;;;;;;;;34.75;29.25;;;;;13.40;57.05;101975.59;5038301;28;45332;-51
2022/05/06 05:31:50;;;;;;;;;34.25;27.50;;;;;13.43;57.80;101978.16;5036172;28;45352;-51
2022/05/06 05:34:15;;;;;;;;;33.00;27.25;;;;;13.46;57.75;101980.75;5037963;28;45505;-50
2022/05/06 05:36:41;;;;;;;;;33.75;26.50;;;;;13.48;57.23;101976.31;5033264;28;45396;-52
2022/05/06 05:39:06;;;;;;;;;36.75;29.75;;;;;13.52;57.22;101988.50;5037586;28;61316;-52
2022/05/06 05:41:32;;;;;;;;;31.25;27.75;;;;;13.54;57.26;101991.97;5034060;28;45209;-52
2022/05/06 05:49:26;;;;;;;;;36.00;28.50;;;;;13.63;57.27;102002.34;5035650;28;45328;-51
2022/05/06 05:51:52;;;;;;;;;32.00;29.75;;;;;13.64;57.29;101997.94;5034564;28;45435;-52
2022/05/06 05:54:17;;;;;;;;;35.75;28.75;;;;;13.68;57.06;102005.72;5036154;28;47521;-51
2022/05/06 05:56:42;;;;;;;;;38.25;26.25;;;;;13.71;57.08;102002.19;5034646;28;66278;-52
2022/05/06 05:59:08;;;;;;;;;40.00;30.50;;;;;13.75;56.86;102000.34;5037069;28;62765;-52
2022/05/06 06:01:33;;;;;;;;;34.00;28.75;;;;;13.77;56.66;101998.56;5035941;28;68468;-50
2022/05/06 06:03:59;;;;;;;;;37.00;29.50;;;;;13.79;56.64;101992.38;5038416;28;48358;-51
2022/05/06 06:06:24;;;;;;;;;38.75;29.75;;;;;13.79;56.84;101997.63;5033272;28;45828;-51
2022/05/06 06:08:50;;;;;;;;;36.75;29.00;;;;;13.79;56.83;101983.59;5029360;28;45324;-52
2022/05/06 06:11:15;;;;;;;;;30.25;27.00;;;;;13.79;57.26;101983.59;5036276;28;67081;-49
2022/05/06 06:13:40;;;;;;;;;33.50;28.50;;;;;13.79;56.55;101981.84;5032125;28;46131;-50
2022/05/06 06:16:06;;;;;;;;;33.25;26.00;;;;;13.79;56.83;101989.75;5037623;28;45416;-50
2022/05/06 06:18:31;;;;;;;;;34.75;30.00;;;;;13.79;56.72;101984.47;5035077;28;45442;-52
2022/05/06 06:20:57;;;;;;;;;35.75;29.50;;;;;13.80;56.84;101986.19;5037230;28;45480;-52
2022/05/06 06:23:23;;;;;;;;;39.00;29.25;;;;;13.80;56.84;101994.09;5034208;28;45968;-51
2022/05/06 06:25:48;;;;;;;;;33.75;27.75;;;;;13.77;56.81;101988.88;5037239;28;45312;-52
2022/05/06 06:28:14;;;;;;;;;30.50;28.75;;;;;13.79;56.72;101992.38;5031595;28;45419;-52
2022/05/06 06:30:40;;;;;;;;;34.50;30.00;;;;;13.83;57.06;101988.78;5038219;28;45257;-49
2022/05/06 06:33:06;;;;;;;;;37.25;30.75;;;;;13.85;56.94;101994.88;5033175;28;46372;-50
2022/05/06 06:35:32;;;;;;;;;31.75;27.00;;;;;13.88;57.10;101993.06;5037929;28;45413;-52
2022/05/06 06:37:57;;;;;;;;;37.00;29.00;;;;;13.93;56.17;102001.75;5032355;28;45386;-53
2022/05/06 06:40:23;;;;;;;;;37.50;32.25;;;;;13.95;56.44;102002.56;5038906;28;45224;-53
2022/05/06 06:42:48;;;;;;;;;35.00;30.50;;;;;13.98;56.33;102003.38;5031510;28;69927;-52
2022/05/06 06:45:13;;;;;;;;;35.25;30.00;;;;;13.98;56.62;102000.75;5038045;28;66795;-52
2022/05/06 06:47:39;;;;;;;;;35.50;31.50;;;;;14.04;56.81;101999.72;5031690;28;62899;-50
2022/05/06 06:50:06;;;;;;;;;39.75;33.25;;;;;14.08;56.86;102009.31;5038801;28;45453;-50
2022/05/06 06:52:31;;;;;;;;;37.00;28.00;;;;;14.11;56.90;101998.72;5032962;28;45455;-52
2022/05/06 06:54:57;;;;;;;;;38.00;30.25;;;;;14.16;56.74;101995.97;5033815;28;67171;-52
2022/05/06 06:57:23;;;;;;;;;46.00;31.50;;;;;14.21;56.12;101996.75;5034790;28;45551;-52
2022/05/06 06:59:48;;;;;;;;;44.00;29.75;;;;;14.27;56.70;102001.00;5039273;28;45290;-52
2022/05/06 07:02:13;;;;;;;;;36.00;30.50;;;;;14.32;56.36;101999.16;5037202;28;70068;-52
2022/05/06 07:04:39;;;;;;;;;32.75;29.00;;;;;14.36;56.15;102000.81;5040500;28;45303;-52
2022/05/06 07:12:32;;;;;;;;;35.25;32.25;;;;;14.59;56.45;101998.56;5032228;28;45729;-52
2022/05/06 07:14:58;;;;;;;;;40.75;30.00;;;;;14.66;55.93;102001.91;5040737;28;53363;-51
2022/05/06 07:17:23;;;;;;;;;29.00;28.25;;;;;14.69;56.04;102012.38;5031250;28;45400;-51
2022/05/06 07:19:49;;;;;;;;;39.50;30.75;;;;;14.71;55.58;102005.28;5040963;28;45581;-49
2022/05/06 07:22:14;;;;;;;;;44.00;31.00;;;;;14.75;56.43;102013.97;5035836;28;46060;-52
2022/05/06 07:24:39;;;;;;;;;33.00;26.25;;;;;14.81;56.15;102012.06;5041235;28;52705;-51
2022/05/06 07:27:06;;;;;;;;;35.25;28.25;;;;;14.87;55.92;102016.31;5034596;28;61437;-50
2022/05/06 07:29:31;;;;;;;;;45.50;32.50;;;;;14.92;55.44;102017.06;5041597;28;45580;-52
2022/05/06 07:31:57;;;;;;;;;40.50;31.00;;;;;14.99;55.71;102015.16;5033011;28;68789;-52
2022/05/06 07:34:22;;;;;;;;;36.75;29.75;;;;;15.03;56.09;102016.81;5041472;28;45146;-52
2022/05/06 07:36:47;;;;;;;;;27.50;22.75;;;;;15.10;55.65;102018.41;5034565;28;53980;-51
2022/05/06 07:39:14;;;;;;;;;33.00;29.75;;;;;15.16;55.69;102022.66;5040495;28;62801;-51
2022/05/06 07:41:39;;;;;;;;;32.75;27.50;;;;;15.23;55.59;102025.97;5034840;28;45512;-51
2022/05/06 07:44:05;;;;;;;;;33.00;25.25;;;;;15.32;54.93;102025.78;5040655;28;65280;-53
2022/05/06 07:46:31;;;;;;;;;36.25;28.00;;;;;15.41;55.00;102027.31;5036201;28;45443;-52
2022/05/06 07:48:56;;;;;;;;;31.75;27.50;;;;;15.47;55.49;102027.97;5039983;28;45394;-53
2022/05/06 07:51:23;;;;;;;;;32.25;29.00;;;;;15.51;54.63;102019.09;5036720;28;46438;-53
2022/05/06 07:53:51;;;;;;;;;33.25;23.50;;;;;15.57;54.64;102018.91;5034907;28;45430;-51
2022/05/06 07:56:17;;;;;;;;;27.00;25.75;;;;;15.64;54.61;102019.63;5037555;28;45344;-52
2022/05/06 07:58:42;;;;;;;;;34.00;27.75;;;;;15.70;54.73;102013.31;5036857;28;45839;-52
2022/05/06 08:01:10;;;;;;;;;30.25;25.25;;;;;15.76;54.76;102018.47;5038650;28;46961;-50
2022/05/06 08:06:19;;;;;;;;;26.75;20.75;;;;;15.94;54.62;102012.63;5038798;28;45411;-53
2022/05/06 08:08:44;;;;;;;;;29.50;23.25;;;;;15.98;54.36;102013.41;5040376;28;45282;-50
2022/05/06 08:11:09;;;;;;;;;30.75;24.25;;;;;16.05;53.95;102011.47;5036563;28;68803;-49
2022/05/06 08:13:35;;;;;;;;;25.75;20.00;;;;;16.14;53.89;102012.03;5033044;28;45304;-50
2022/05/06 08:16:00;;;;;;;;;25.25;19.50;;;;;16.26;53.83;102015.25;5038953;28;45553;-52
2022/05/06 08:18:26;;;;;;;;;20.00;15.75;;;;;16.37;53.59;102020.19;5034112;28;45486;-52
2022/05/06 08:20:52;;;;;;;;;17.00;14.00;;;;;16.47;53.39;102013.72;5038750;28;71068;-51
2022/05/06 08:23:19;;;;;;;;;23.75;19.00;;;;;16.52;53.24;102012.66;5033167;28;45367;-51
2022/05/06 08:25:45;;;;;;;;;18.75;17.00;;;;;16.62;52.95;102007.94;5039865;28;45347;-49
2022/05/06 08:28:13;;;;;;;;;16.50;13.50;;;;;16.69;52.57;102009.47;5035690;28;45505;-50
2022/05/06 08:30:39;;;;;;;;;13.75;12.00;;;;;16.76;52.64;102004.84;5039846;28;46097;-51
2022/05/06 08:33:04;;;;;;;;;18.75;14.75;;;;;16.82;52.28;101999.38;5034298;28;45168;-51
2022/05/06 08:35:30;;;;;;;;;12.75;11.75;;;;;16.90;52.27;102004.44;5040797;28;45206;-51
2022/05/06 08:37:57;;;;;;;;;15.25;14.00;;;;;16.97;51.82;102005.09;5033929;28;46215;-52
2022/05/06 08:40:29;;;;;;;;;8.00;7.50;;;;;17.02;51.23;102004.03;5040708;28;47261;-50
2022/05/06 08:42:54;;;;;;;;;13.75;10.00;;;;;17.06;51.35;102010.06;5033943;28;45861;-53
2022/05/06 08:50:53;;;;;;;;;13.00;9.50;;;;;17.32;50.84;102003.88;5026421;28;45419;-53
2022/05/06 08:53:26;;;;;;;;;15.25;14.25;;;;;17.42;50.27;102002.66;5035127;28;45382;-51
2022/05/06 08:55:52;;;;;;;;;12.75;12.75;;;;;17.50;50.35;101996.22;5038552;28;45326;-52
2022/05/06 08:58:18;;;;;;;;;10.50;9.50;;;;;17.57;50.42;102003.03;5035818;28;45594;-52
2022/05/06 09:00:44;;;;;;;;;11.00;9.00;;;;;17.66;50.03;102005.34;5039289;28;45971;-51
2022/05/06 09:03:09;;;;;;;;;9.75;9.00;;;;;17.72;50.02;102002.44;5037435;28;45418;-49
2022/05/06 09:05:59;;;;;;;;;11.75;9.75;;;;;17.82;49.38;101992.38;5040023;28;45585;-50
2022/05/06 09:08:42;;;;;;;;;10.00;7.75;;;;;18.05;48.98;101996.00;5030686;28;45493;-51
2022/05/06 09:11:08;;;;;;;;;9.50;8.75;;;;;18.34;49.37;101998.38;5037242;28;48234;-53
2022/05/06 09:13:48;;;;;;;;;7.00;7.00;;;;;18.81;48.38;102001.81;5032291;28;45376;-49
2022/05/06 09:19:25;;;;;;;;;13.00;10.75;;;;;19.95;46.84;102002.22;5040145;28;45265;-52
2022/05/06 09:22:00;;;;;;;;;10.50;8.50;;;;;20.98;45.52;101995.50;5025447;28;46141;-52
2022/05/06 09:24:28;;;;;;;;;9.25;7.25;;;;;22.05;44.08;101989.91;5037898;28;45414;-50
2022/05/06 09:27:05;;;;;;;;;10.25;8.75;;;;;23.30;42.51;101992.47;5031587;28;45323;-50
2022/05/06 09:29:38;;;;;;;;;9.75;7.75;;;;;24.76;40.74;101986.81;5037786;28;45426;-50
2022/05/06 09:32:25;;;;;;;;;19.75;12.75;;;;;26.03;38.12;101982.47;5033434;28;46253;-52
2022/05/06 09:34:55;;;;;;;;;32.75;26.50;;;;;27.34;36.68;101982.53;5031319;28;45371;-52
2022/05/06 09:37:37;;;;;;;;;27.75;22.75;;;;;28.65;35.62;101983.63;5033342;28;45399;-52
2022/05/06 09:40:29;;;;;;;;;29.50;21.25;;;;;29.80;33.12;101982.75;5039786;28;45306;-51
2022/05/06 09:42:54;;;;;;;;;16.00;15.00;;;;;30.70;32.05;101987.16;5029981;28;46143;-52
2022/05/06 09:45:39;;;;;;;;;9.50;9.00;;;;;31.58;31.27;101971.63;5039730;28;45446;-53
2022/05/06 09:48:06;;;;;;;;;12.75;10.50;;;;;32.54;29.30;101987.41;5033764;28;45394;-53
2022/05/06 09:50:36;;;;;;;;;13.50;12.00;;;;;33.15;29.06;101978.59;5038445;28;45178;-52
2022/05/06 09:53:02;;;;;;;;;11.25;9.50;;;;;33.84;28.19;101976.78;5034730;28;46076;-53
2022/05/06 09:55:28;;;;;;;;;15.50;12.25;;;;;34.43;27.25;101974.03;5039480;28;45301;-52
2022/05/06 09:57:55;;;;;;;;;11.25;9.50;;;;;34.95;25.85;101973.69;5029679;28;45399;-54
2022/05/06 10:00:21;;;;;;;;;11.25;10.00;;;;;35.56;26.48;101970.47;5036906;28;45450;-53
2022/05/06 10:02:46;;;;;;;;;11.75;8.75;;;;;35.93;25.78;101972.53;5034637;28;45838;-54
2022/05/06 10:05:11;;;;;;;;;10.00;8.50;;;;;36.11;24.50;101974.97;5037467;28;61320;-53
2022/05/06 10:07:38;;;;;;;;;10.75;9.00;;;;;36.53;23.65;101964.63;5035794;28;60794;-54
2022/05/06 10:10:06;;;;;;;;;11.00;10.50;;;;;37.05;23.09;101957.50;5021527;28;45554;-54
2022/05/06 10:12:36;;;;;;;;;8.75;7.50;;;;;37.65;22.63;101965.69;5012055;28;46193;-52
2022/05/06 10:15:05;;;;;;;;;7.75;5.00;;;;;38.29;22.93;101963.06;5037736;28;45260;-54
2022/05/06 10:17:50;;;;;;;;;10.25;8.25;;;;;38.64;21.98;101959.59;5029780;28;45288;-53
2022/05/06 10:20:33;;;;;;;;;9.50;8.75;;;;;39.08;19.09;101963.94;5029314;28;45197;-54
2022/05/06 10:23:08;;;;;;;;;9.00;6.50;;;;;39.22;21.01;101964.84;5033179;28;46215;-55
2022/05/06 10:25:43;;;;;;;;;9.25;8.25;;;;;39.36;20.11;101955.66;5039056;28;45684;-53
2022/05/06 10:34:09;;;;;;;;;9.75;9.50;;;;;39.60;20.47;101957.06;5038942;28;45400;-52
2022/05/06 10:36:41;;;;;;;;;11.25;7.50;;;;;39.26;19.38;101950.56;5036550;28;45616;-52
2022/05/06 10:39:19;;;;;;;;;3.75;3.75;;;;;39.21;20.52;101952.22;5040063;28;45252;-53
2022/05/06 10:42:04;;;;;;;;;9.25;7.00;;;;;39.80;19.70;101948.06;5035886;28;45455;-51
2022/05/06 10:44:38;;;;;;;;;8.50;7.00;;;;;40.37;19.89;101945.88;5036620;28;45464;-52
2022/05/06 10:47:12;;;;;;;;;6.50;6.00;;;;;40.75;18.56;101945.22;5035691;28;45825;-52
2022/05/06 10:49:38;;;;;;;;;11.25;8.50;;;;;41.07;18.44;101940.75;5042556;28;45464;-53
2022/05/06 10:54:47;;;;;;;;;5.25;5.25;;;;;40.97;17.55;101932.94;5037995;28;46235;-51
2022/05/06 10:57:12;;;;;;;;;6.00;6.00;;;;;40.67;17.45;101928.97;5037508;28;45612;-52
2022/05/06 10:59:50;;;;;;;;;6.50;6.50;;;;;39.55;18.89;101934.06;5038619;28;64009;-53
2022/05/06 11:02:16;;;;;;;;;9.75;7.25;;;;;38.07;18.48;101929.41;5038717;28;45499;-53
2022/05/06 11:04:41;;;;;;;;;7.25;7.25;;;;;36.71;20.10;101936.19;5040452;28;46777;-50
2022/05/06 11:07:13;;;;;;;;;12.25;11.50;;;;;35.37;19.86;101933.63;5038087;28;45447;-53
2022/05/06 11:09:38;;;;;;;;;9.25;9.25;;;;;34.27;21.95;101920.50;5041106;28;45401;-52
2022/05/06 11:12:04;;;;;;;;;10.50;8.50;;;;;33.42;22.05;101924.16;5035882;28;45300;-52
2022/05/06 11:14:29;;;;;;;;;7.00;5.75;;;;;33.64;21.50;101917.28;5040102;28;46345;-53
2022/05/06 11:17:17;;;;;;;;;11.75;9.75;;;;;34.44;21.10;101918.66;5035987;28;69374;-53
2022/05/06 11:19:42;;;;;;;;;12.25;11.00;;;;;34.91;20.92;101919.78;5039121;28;45541;-52
2022/05/06 11:22:08;;;;;;;;;12.25;10.50;;;;;35.49;20.50;101915.88;5034874;28;67442;-53
2022/05/06 11:24:34;;;;;;;;;12.75;11.75;;;;;35.84;19.67;101912.81;5040767;28;45373;-52
2022/05/06 11:27:19;;;;;;;;;9.25;8.25;;;;;35.77;19.71;101914.56;5034993;28;45435;-50
2022/05/06 11:30:00;;;;;;;;;5.50;5.25;;;;;36.37;20.37;101911.09;5040100;28;45343;-53
2022/05/06 11:32:29;;;;;;;;;19.25;15.75;;;;;36.97;19.74;101911.19;5034318;28;45454;-50
2022/05/06 11:35:10;;;;;;;;;28.50;24.00;;;;;37.37;18.88;101911.75;5040803;28;46411;-53
2022/05/06 11:37:39;;;;;;;;;9.00;7.25;;;;;37.52;18.23;101907.13;5034159;28;45637;-53
2022/05/06 11:40:32;;;;;;;;;26.00;21.75;;;;;37.61;18.09;101903.25;5041127;28;45371;-51
2022/05/06 11:43:03;;;;;;;;;8.50;8.25;;;;;38.05;17.69;101895.91;5018208;28;45471;-53
2022/05/06 11:48:16;;;;;;;;;9.00;6.00;;;;;38.56;18.57;101903.13;5036135;28;45704;-53
2022/05/06 11:50:41;;;;;;;;;7.00;6.00;;;;;38.62;17.53;101902.38;5040424;28;45383;-53
2022/05/06 11:53:09;;;;;;;;;7.00;4.25;;;;;38.58;17.84;101903.78;5032142;28;45364;-50
2022/05/06 11:55:35;;;;;;;;;5.50;4.50;;;;;38.28;16.29;101903.94;5039927;28;46465;-53
2022/05/06 11:58:01;;;;;;;;;4.00;3.75;;;;;38.26;17.54;101897.81;5036556;28;45488;-49